createdAt,value
2018-07-23T00:02:12.209Z,44.70
2018-07-23T00:04:43.056Z,45.27
2018-07-23T00:07:13.467Z,45.77
2018-07-23T00:09:43.554Z,45.37
2018-07-23T00:12:13.796Z,45.23
2018-07-23T00:14:43.908Z,44.83
2018-07-23T00:17:13.914Z,44.90
2018-07-23T00:19:44.173Z,45.07
2018-07-23T00:22:14.542Z,45.97
2018-07-23T00:24:44.938Z,46.27
2018-07-23T00:27:15.709Z,45.90
2018-07-23T00:29:46.565Z,45.70
2018-07-23T00:32:17.359Z,44.70
2018-07-23T00:34:48.397Z,45.07
2018-07-23T00:37:18.575Z,45.63
2018-07-23T00:39:48.888Z,46.37
2018-07-23T00:42:20.465Z,46.50
2018-07-23T00:44:51.909Z,45.67
2018-07-23T00:47:22.047Z,44.87
2018-07-23T00:49:52.495Z,45.93
2018-07-23T00:52:22.753Z,46.10
2018-07-23T00:54:53.123Z,45.37
2018-07-23T00:57:23.936Z,45.20
2018-07-23T00:59:54.634Z,44.37
2018-07-23T01:02:25.474Z,45.17
2018-07-23T01:04:56.042Z,45.47
2018-07-23T01:07:27.099Z,45.50
2018-07-23T01:09:57.939Z,44.77
2018-07-23T01:12:32.381Z,44.77
2018-07-23T01:15:02.788Z,44.63
2018-07-23T01:17:33.220Z,44.70
2018-07-23T01:20:03.567Z,45.83
2018-07-23T01:22:34.810Z,44.57
2018-07-23T01:25:05.187Z,44.80
2018-07-23T01:27:35.379Z,45.40
2018-07-23T01:30:06.406Z,44.03
2018-07-23T01:32:36.436Z,45.43
2018-07-23T01:35:06.895Z,44.53
2018-07-23T01:37:37.008Z,44.83
2018-07-23T01:40:07.166Z,45.13
2018-07-23T01:42:38.554Z,44.73
2018-07-23T01:45:15.744Z,45.40
2018-07-23T01:47:46.167Z,44.40
2018-07-23T01:50:16.422Z,44.67
2018-07-23T01:52:46.628Z,45.13
2018-07-23T01:55:16.779Z,44.63
2018-07-23T01:57:47.111Z,44.90
2018-07-23T02:00:17.598Z,45.40
2018-07-23T02:02:47.725Z,44.90
2018-07-23T02:05:18.267Z,44.37
2018-07-23T02:07:48.644Z,44.90
2018-07-23T02:10:18.813Z,44.97
2018-07-23T02:12:49.460Z,45.20
2018-07-23T02:15:19.435Z,44.90
2018-07-23T02:17:49.398Z,44.47
2018-07-23T02:20:20.147Z,44.60
2018-07-23T02:22:50.133Z,44.90
2018-07-23T02:25:20.514Z,45.40
2018-07-23T02:27:50.700Z,46.17
2018-07-23T02:30:21.162Z,46.00
2018-07-23T02:32:51.423Z,44.47
2018-07-23T02:35:21.957Z,44.83
2018-07-23T02:37:52.712Z,45.20
2018-07-23T02:40:23.546Z,45.50
2018-07-23T02:42:54.125Z,44.83
2018-07-23T02:45:25.148Z,44.63
2018-07-23T02:47:55.192Z,45.23
2018-07-23T02:50:25.733Z,44.63
2018-07-23T02:52:56.125Z,44.20
2018-07-23T02:55:29.563Z,45.40
2018-07-23T02:58:00.548Z,44.37
2018-07-23T03:00:30.918Z,47.93
2018-07-23T03:03:01.121Z,44.60
2018-07-23T03:05:31.489Z,44.17
2018-07-23T03:08:02.308Z,45.30
2018-07-23T03:10:34.759Z,45.47
2018-07-23T03:13:05.326Z,44.50
2018-07-23T03:15:35.965Z,45.30
2018-07-23T03:18:07.044Z,44.03
2018-07-23T03:20:37.219Z,43.77
2018-07-23T03:23:07.601Z,44.60
2018-07-23T03:25:38.368Z,44.03
2018-07-23T03:28:09.184Z,43.77
2018-07-23T03:30:40.109Z,43.93
2018-07-23T03:33:10.415Z,44.20
2018-07-23T03:35:41.389Z,45.17
2018-07-23T03:38:11.947Z,44.40
2018-07-23T03:40:42.875Z,44.87
2018-07-23T03:43:12.906Z,43.83
2018-07-23T03:45:43.294Z,44.33
2018-07-23T03:48:13.461Z,44.60
2018-07-23T03:50:44.801Z,44.07
2018-07-23T03:53:15.049Z,44.53
2018-07-23T03:55:45.975Z,43.70
2018-07-23T03:58:16.060Z,44.13
2018-07-23T04:00:46.361Z,43.37
2018-07-23T04:03:17.580Z,44.27
2018-07-23T04:05:48.582Z,44.13
2018-07-23T04:08:18.998Z,43.63
2018-07-23T04:10:49.501Z,44.20
2018-07-23T04:13:19.997Z,44.00
2018-07-23T04:15:50.274Z,44.30
2018-07-23T04:18:20.440Z,44.30
2018-07-23T04:20:50.524Z,43.83
2018-07-23T04:23:21.173Z,44.30
2018-07-23T04:25:51.325Z,43.43
2018-07-23T04:28:22.054Z,44.07
2018-07-23T04:30:52.710Z,44.93
2018-07-23T04:33:23.260Z,44.23
2018-07-23T04:35:53.999Z,44.37
2018-07-23T04:38:24.370Z,43.77
2018-07-23T04:40:54.639Z,43.77
2018-07-23T04:43:25.485Z,44.33
2018-07-23T04:45:55.631Z,44.67
2018-07-23T04:48:26.748Z,44.30
2018-07-23T04:50:57.487Z,44.17
2018-07-23T04:53:27.701Z,43.63
2018-07-23T04:55:57.671Z,44.87
2018-07-23T04:58:29.082Z,44.63
2018-07-23T05:00:59.474Z,44.17
2018-07-23T05:03:29.527Z,44.33
2018-07-23T05:06:00.388Z,44.03
2018-07-23T05:08:30.664Z,45.10
2018-07-23T05:11:01.222Z,43.97
2018-07-23T05:13:31.575Z,44.87
2018-07-23T05:16:02.295Z,44.50
2018-07-23T05:18:32.940Z,44.80
2018-07-23T05:21:03.380Z,44.40
2018-07-23T05:23:34.653Z,44.83
2018-07-23T05:26:04.665Z,45.97
2018-07-23T05:28:35.229Z,44.43
2018-07-23T05:31:05.941Z,44.33
2018-07-23T05:33:36.297Z,45.13
2018-07-23T05:36:06.638Z,44.97
2018-07-23T05:38:36.674Z,44.87
2018-07-23T05:41:08.278Z,45.80
2018-07-23T05:43:38.888Z,45.23
2018-07-23T05:46:09.601Z,45.20
2018-07-23T05:48:39.742Z,45.33
2018-07-23T05:51:10.268Z,45.47
2018-07-23T05:53:41.554Z,44.60
2018-07-23T05:56:12.251Z,45.27
2018-07-23T05:58:43.340Z,45.17
2018-07-23T06:01:14.106Z,45.83
2018-07-23T06:03:44.287Z,45.43
2018-07-23T06:06:14.444Z,44.80
2018-07-23T06:08:45.207Z,44.53
2018-07-23T06:11:15.698Z,45.57
2018-07-23T06:13:46.542Z,45.00
2018-07-23T06:16:17.330Z,44.87
2018-07-23T06:18:48.175Z,45.03
2018-07-23T06:21:18.501Z,46.40
2018-07-23T06:23:49.157Z,46.73
2018-07-23T06:26:19.124Z,45.80
2018-07-23T06:28:50.064Z,46.60
2018-07-23T06:31:22.229Z,46.70
2018-07-23T06:33:52.449Z,45.77
2018-07-23T06:36:23.530Z,45.67
2018-07-23T06:38:53.759Z,46.07
2018-07-23T06:41:24.161Z,45.43
2018-07-23T06:43:55.768Z,46.87
2018-07-23T06:46:26.161Z,46.13
2018-07-23T06:48:56.480Z,46.27
2018-07-23T06:51:26.698Z,45.50
2018-07-23T06:53:56.808Z,45.70
2018-07-23T06:56:27.779Z,45.50
2018-07-23T06:58:58.689Z,47.90
2018-07-23T07:01:28.713Z,48.07
2018-07-23T07:03:59.819Z,45.70
2018-07-23T07:06:29.886Z,46.53
2018-07-23T07:09:01.509Z,46.43
2018-07-23T07:11:31.484Z,46.67
2018-07-23T07:14:01.671Z,46.17
2018-07-23T07:16:33.187Z,44.90
2018-07-23T07:19:04.434Z,46.53
2018-07-23T07:21:34.556Z,46.23
2018-07-23T07:24:05.982Z,46.03
2018-07-23T07:26:37.125Z,46.30
2018-07-23T07:29:07.262Z,44.87
2018-07-23T07:31:37.502Z,46.27
2018-07-23T07:34:07.839Z,47.10
2018-07-23T07:36:38.258Z,45.97
2018-07-23T07:39:11.838Z,47.10
2018-07-23T07:41:43.013Z,46.97
2018-07-23T07:44:13.099Z,47.37
2018-07-23T07:46:44.514Z,47.70
2018-07-23T07:49:14.696Z,47.43
2018-07-23T07:51:44.943Z,48.93
2018-07-23T07:54:15.160Z,46.80
2018-07-23T07:56:45.317Z,46.53
2018-07-23T07:59:15.526Z,45.67
2018-07-23T08:01:46.643Z,46.37
2018-07-23T08:04:18.181Z,47.27
2018-07-23T08:06:48.336Z,49.20
2018-07-23T08:09:19.086Z,48.77
2018-07-23T08:11:50.929Z,47.03
2018-07-23T08:14:21.405Z,47.27
2018-07-23T08:16:51.638Z,46.93
2018-07-23T08:19:22.041Z,47.33
2018-07-23T08:21:52.699Z,46.90
2018-07-23T08:24:22.777Z,46.73
2018-07-23T08:26:52.981Z,47.43
2018-07-23T08:29:23.324Z,46.27
2018-07-23T08:31:53.595Z,46.27
2018-07-23T08:34:25.810Z,46.97
2018-07-23T08:36:56.575Z,47.47
2018-07-23T08:39:27.155Z,47.90
2018-07-23T08:41:57.708Z,46.00
2018-07-23T08:44:28.502Z,47.43
2018-07-23T08:46:58.629Z,48.87
2018-07-23T08:49:28.851Z,47.43
2018-07-23T08:51:59.727Z,46.70
2018-07-23T08:54:30.586Z,46.03
2018-07-23T08:57:01.473Z,47.00
2018-07-23T08:59:31.621Z,48.10
2018-07-23T09:02:02.693Z,49.87
2018-07-23T09:04:32.646Z,50.67
2018-07-23T09:07:02.876Z,50.03
2018-07-23T09:09:33.625Z,47.73
2018-07-23T09:12:04.147Z,48.83
2018-07-23T09:14:34.363Z,48.73
2018-07-23T09:17:04.540Z,49.37
2018-07-23T09:19:35.357Z,47.93
2018-07-23T09:22:05.911Z,47.20
2018-07-23T09:24:36.915Z,48.30
2018-07-23T09:27:07.475Z,49.67
2018-07-23T09:29:37.885Z,47.63
2018-07-23T09:32:09.021Z,48.17
2018-07-23T09:34:39.444Z,47.80
2018-07-23T09:37:09.710Z,46.83
2018-07-23T09:39:39.992Z,47.67
2018-07-23T09:42:11.587Z,47.13
2018-07-23T09:44:41.946Z,46.97
2018-07-23T09:47:12.330Z,47.53
2018-07-23T09:49:42.561Z,47.13
2018-07-23T09:52:13.314Z,46.50
2018-07-23T09:54:43.673Z,46.87
2018-07-23T09:57:13.798Z,47.03
2018-07-23T09:59:43.969Z,46.30
2018-07-23T10:02:14.024Z,47.23
2018-07-23T10:04:44.249Z,46.77
2018-07-23T10:07:14.619Z,47.07
2018-07-23T10:09:45.269Z,48.50
2018-07-23T10:12:15.439Z,46.83
2018-07-23T10:14:45.587Z,47.43
2018-07-23T10:17:17.094Z,48.07
2018-07-23T10:19:47.542Z,46.93
2018-07-23T10:22:17.588Z,46.67
2018-07-23T10:24:47.729Z,46.70
2018-07-23T10:27:17.777Z,46.47
2018-07-23T10:29:48.464Z,46.20
2018-07-23T10:32:19.748Z,46.33
2018-07-23T10:34:49.843Z,45.80
2018-07-23T10:37:21.084Z,45.00
2018-07-23T10:39:51.742Z,46.07
2018-07-23T10:42:22.301Z,45.07
2018-07-23T10:44:53.156Z,45.90
2018-07-23T10:47:24.644Z,45.73
2018-07-23T10:49:55.205Z,45.97
2018-07-23T10:52:25.703Z,46.00
2018-07-23T10:54:56.397Z,46.43
2018-07-23T10:57:30.231Z,47.07
2018-07-23T11:00:00.792Z,45.83
2018-07-23T11:02:30.978Z,46.40
2018-07-23T11:05:01.313Z,45.67
2018-07-23T11:07:31.662Z,45.93
2018-07-23T11:10:02.091Z,46.93
2018-07-23T11:12:32.856Z,46.57
2018-07-23T11:15:03.189Z,46.10
2018-07-23T11:17:33.156Z,45.63
2018-07-23T11:20:03.583Z,45.67
2018-07-23T11:22:33.755Z,45.60
2018-07-23T11:25:38.323Z,45.67
2018-07-23T11:27:34.053Z,45.77
2018-07-23T11:30:05.080Z,45.40
2018-07-23T11:32:35.816Z,45.53
2018-07-23T11:35:06.525Z,45.73
2018-07-23T11:37:36.622Z,46.17
2018-07-23T11:40:06.702Z,45.97
2018-07-23T11:42:37.441Z,44.73
2018-07-23T11:45:08.049Z,45.43
2018-07-23T11:47:38.409Z,46.30
2018-07-23T11:50:08.602Z,46.40
2018-07-23T11:52:40.111Z,46.63
2018-07-23T11:55:10.684Z,46.90
2018-07-23T11:57:41.443Z,46.53
2018-07-23T12:00:12.997Z,46.40
2018-07-23T12:02:43.281Z,45.80
2018-07-23T12:05:14.729Z,46.00
2018-07-23T12:07:44.649Z,46.33
2018-07-23T12:10:14.626Z,46.23
2018-07-23T12:12:44.899Z,45.87
2018-07-23T12:15:15.081Z,46.40
2018-07-23T12:17:46.307Z,46.47
2018-07-23T12:20:16.397Z,47.00
2018-07-23T12:22:46.704Z,47.37
2018-07-23T12:25:16.967Z,46.60
2018-07-23T12:27:47.357Z,47.57
2018-07-23T12:30:17.389Z,46.73
2018-07-23T12:32:47.487Z,47.63
2018-07-23T12:35:17.766Z,47.87
2018-07-23T12:37:48.350Z,47.10
2018-07-23T12:40:18.517Z,47.07
2018-07-23T12:42:48.533Z,47.23
2018-07-23T12:45:19.372Z,48.03
2018-07-23T12:47:49.458Z,47.63
2018-07-23T12:50:19.822Z,47.50
2018-07-23T12:52:51.107Z,47.53
2018-07-23T12:55:21.694Z,47.03
2018-07-23T12:57:51.960Z,46.67
2018-07-23T13:00:22.159Z,47.50
2018-07-23T13:02:52.310Z,47.07
2018-07-23T13:05:26.006Z,47.70
2018-07-23T13:07:56.344Z,47.07
2018-07-23T13:10:27.160Z,47.57
2018-07-23T13:12:57.287Z,47.80
2018-07-23T13:15:28.171Z,49.20
2018-07-23T13:17:58.456Z,48.27
2018-07-23T13:20:29.199Z,48.00
2018-07-23T13:22:59.909Z,47.60
2018-07-23T13:25:30.309Z,48.40
2018-07-23T13:28:00.744Z,48.40
2018-07-23T13:30:31.032Z,48.03
2018-07-23T13:33:01.228Z,47.97
2018-07-23T13:35:31.769Z,47.77
2018-07-23T13:38:02.245Z,48.17
2018-07-23T13:40:32.388Z,48.60
2018-07-23T13:43:02.444Z,48.67
2018-07-23T13:45:32.886Z,48.53
2018-07-23T13:48:03.119Z,48.37
2018-07-23T13:50:33.419Z,48.00
2018-07-23T13:53:03.692Z,48.43
2018-07-23T13:55:33.924Z,48.97
2018-07-23T13:58:04.253Z,49.37
2018-07-23T14:00:34.920Z,48.80
2018-07-23T14:03:05.712Z,48.53
2018-07-23T14:05:36.727Z,48.70
2018-07-23T14:08:07.142Z,48.27
2018-07-23T14:10:37.506Z,48.60
2018-07-23T14:13:08.399Z,46.92
2018-07-23T14:15:39.103Z,46.60
2018-07-23T14:18:09.696Z,48.05
2018-07-23T14:20:40.059Z,48.25
2018-07-23T14:23:10.271Z,47.60
2018-07-23T14:25:47.274Z,48.17
2018-07-23T14:28:20.505Z,47.38
2018-07-23T14:30:53.039Z,48.00
2018-07-23T14:33:25.891Z,47.13
2018-07-23T14:35:58.450Z,47.83
2018-07-23T14:38:30.598Z,48.25
2018-07-23T14:41:01.740Z,47.93
2018-07-23T14:43:33.945Z,47.93
2018-07-23T14:46:07.443Z,48.13
2018-07-23T14:48:39.879Z,47.73
2018-07-23T14:51:12.062Z,47.85
2018-07-23T14:53:45.800Z,47.48
2018-07-23T14:56:18.417Z,47.43
2018-07-23T14:58:50.822Z,47.73
2018-07-23T15:01:22.788Z,54.98
2018-07-23T15:03:57.652Z,48.10
2018-07-23T15:06:29.007Z,48.25
2018-07-23T15:09:00.380Z,47.78
2018-07-23T15:11:33.873Z,48.38
2018-07-23T15:14:06.128Z,48.02
2018-07-23T15:16:38.242Z,48.83
2018-07-23T15:19:10.687Z,48.33
2018-07-23T15:21:45.305Z,47.80
2018-07-23T15:24:17.817Z,48.20
2018-07-23T15:26:48.067Z,47.43
2018-07-23T15:29:18.125Z,48.28
2018-07-23T15:31:49.309Z,48.80
2018-07-23T15:34:20.453Z,48.05
2018-07-23T15:36:52.687Z,48.00
2018-07-23T15:39:25.417Z,48.65
2018-07-23T15:41:57.572Z,47.90
2018-07-23T15:44:28.051Z,47.85
2018-07-23T15:47:00.224Z,48.13
2018-07-23T15:49:33.183Z,48.87
2018-07-23T15:52:04.958Z,48.28
2018-07-23T15:54:35.234Z,47.95
2018-07-23T15:57:07.579Z,48.13
2018-07-23T15:59:39.657Z,47.15
2018-07-23T16:02:12.252Z,47.78
2018-07-23T16:04:44.585Z,48.75
2018-07-23T16:07:16.920Z,48.08
2018-07-23T16:09:50.440Z,48.20
2018-07-23T16:12:22.483Z,48.25
2018-07-23T16:14:55.213Z,47.78
2018-07-23T16:17:28.195Z,48.15
2018-07-23T16:20:01.475Z,47.67
2018-07-23T16:22:33.715Z,47.70
2018-07-23T16:25:07.683Z,47.73
2018-07-23T16:27:40.365Z,48.15
2018-07-23T16:30:12.847Z,47.33
2018-07-23T16:32:45.584Z,47.53
2018-07-23T16:35:16.576Z,47.50
2018-07-23T16:37:49.177Z,48.10
2018-07-23T16:40:21.862Z,48.58
2018-07-23T16:42:54.245Z,48.20
2018-07-23T16:45:26.054Z,48.05
2018-07-23T16:47:56.496Z,48.78
2018-07-23T16:50:28.277Z,48.42
2018-07-23T16:52:58.457Z,48.65
2018-07-23T16:55:28.739Z,47.80
2018-07-23T16:57:58.952Z,49.38
2018-07-23T17:00:29.001Z,49.53
2018-07-23T17:02:59.351Z,48.65
2018-07-23T17:05:30.013Z,48.70
2018-07-23T17:08:00.114Z,48.85
2018-07-23T17:10:31.318Z,48.45
2018-07-23T17:13:02.334Z,48.80
2018-07-23T17:15:32.554Z,48.60
2018-07-23T17:18:03.793Z,48.10
2018-07-23T17:20:34.180Z,48.10
2018-07-23T17:23:04.584Z,48.45
2018-07-23T17:25:35.013Z,48.02
2018-07-23T17:28:05.336Z,47.65
2018-07-23T17:30:35.702Z,48.63
2018-07-23T17:33:06.125Z,48.65
2018-07-23T17:35:36.130Z,48.42
2018-07-23T17:38:06.359Z,47.90
2018-07-23T17:40:36.411Z,48.35
2018-07-23T17:43:06.908Z,48.50
2018-07-23T17:45:38.079Z,50.58
2018-07-23T17:48:08.319Z,49.35
2018-07-23T17:50:38.445Z,49.03
2018-07-23T17:53:08.773Z,48.00
2018-07-23T17:55:38.900Z,47.48
2018-07-23T17:58:09.408Z,48.13
2018-07-23T18:00:39.986Z,47.73
2018-07-23T18:03:11.192Z,48.63
2018-07-23T18:05:41.574Z,48.20
2018-07-23T18:08:12.160Z,47.33
2018-07-23T18:10:42.927Z,47.45
2018-07-23T18:13:12.983Z,47.60
2018-07-23T18:15:43.196Z,47.35
2018-07-23T18:18:13.397Z,47.85
2018-07-23T18:20:43.635Z,48.17
2018-07-23T18:23:13.812Z,47.93
2018-07-23T18:25:44.520Z,47.50
2018-07-23T18:28:15.966Z,48.03
2018-07-23T18:30:46.180Z,48.10
2018-07-23T18:33:16.122Z,48.77
2018-07-23T18:35:46.219Z,49.60
2018-07-23T18:38:16.780Z,47.40
2018-07-23T18:40:46.933Z,48.40
2018-07-23T18:43:17.313Z,48.33
2018-07-23T18:45:47.341Z,48.23
2018-07-23T18:49:35.281Z,48.20
2018-07-23T18:52:06.071Z,48.17
2018-07-23T18:54:36.924Z,48.17
2018-07-23T18:57:07.924Z,50.10
2018-07-23T18:59:37.980Z,49.50
2018-07-23T19:02:09.536Z,48.77
2018-07-23T19:04:39.770Z,48.80
2018-07-23T19:07:10.683Z,48.37
2018-07-23T19:09:41.240Z,48.63
2018-07-23T19:12:12.464Z,49.17
2018-07-23T19:14:42.769Z,49.67
2018-07-23T19:17:14.303Z,50.10
2018-07-23T19:19:47.205Z,49.30
2018-07-23T19:22:18.013Z,48.73
2018-07-23T19:24:48.180Z,50.00
2018-07-23T19:27:18.551Z,49.67
2018-07-23T19:29:48.813Z,49.93
2018-07-23T19:32:18.940Z,49.10
2018-07-23T19:34:49.390Z,48.67
2018-07-23T19:37:20.748Z,49.73
2018-07-23T19:39:51.013Z,49.67
2018-07-23T19:42:21.301Z,49.60
2018-07-23T19:44:51.870Z,49.40
2018-07-23T19:47:22.685Z,49.87
2018-07-23T19:49:54.532Z,49.20
2018-07-23T19:52:24.720Z,50.83
2018-07-23T19:54:55.600Z,49.17
2018-07-23T19:57:25.780Z,49.43
2018-07-23T19:59:56.635Z,49.13
2018-07-23T20:02:27.363Z,49.53
2018-07-23T20:04:57.903Z,49.27
2018-07-23T20:07:28.326Z,49.80
2018-07-23T20:09:59.604Z,49.83
2018-07-23T20:12:29.828Z,49.27
2018-07-23T20:14:59.917Z,48.80
2018-07-23T20:17:30.700Z,48.63
2018-07-23T20:20:01.671Z,48.97
2018-07-23T20:22:31.832Z,49.13
2018-07-23T20:25:02.126Z,48.87
2018-07-23T20:27:33.182Z,48.90
2018-07-23T20:30:03.494Z,49.20
2018-07-23T20:32:34.505Z,49.13
2018-07-23T20:35:04.773Z,48.13
2018-07-23T20:37:36.249Z,48.67
2018-07-23T20:40:07.061Z,48.80
2018-07-23T20:42:37.614Z,48.27
2018-07-23T20:45:08.889Z,49.23
2018-07-23T20:47:40.145Z,49.37
2018-07-23T20:50:10.246Z,47.23
2018-07-23T20:52:40.450Z,48.07
2018-07-23T20:55:10.995Z,47.77
2018-07-23T20:57:42.213Z,47.93
2018-07-23T21:00:13.302Z,47.30
2018-07-23T21:02:43.620Z,47.17
2018-07-23T21:05:13.672Z,46.50
2018-07-23T21:07:44.116Z,46.03
2018-07-23T21:10:14.692Z,46.20
2018-07-23T21:12:44.855Z,46.23
2018-07-23T21:15:15.402Z,47.10
2018-07-23T21:17:46.599Z,45.70
2018-07-23T21:20:16.846Z,45.53
2018-07-23T21:22:47.076Z,44.77
2018-07-23T21:25:17.623Z,44.97
2018-07-23T21:27:47.876Z,45.73
2018-07-23T21:30:18.576Z,45.30
2018-07-23T21:32:49.193Z,44.33
2018-07-23T21:35:19.344Z,45.00
2018-07-23T21:37:51.137Z,45.13
2018-07-23T21:40:21.775Z,44.77
2018-07-23T21:42:52.227Z,44.53
2018-07-23T21:45:22.759Z,43.93
2018-07-23T21:47:53.451Z,44.37
2018-07-23T21:50:23.595Z,44.10
2018-07-23T21:52:54.534Z,43.17
2018-07-23T21:55:24.948Z,44.30
2018-07-23T21:57:55.403Z,43.90
2018-07-23T22:00:25.754Z,44.80
2018-07-23T22:02:56.340Z,45.23
2018-07-23T22:05:26.491Z,44.47
2018-07-23T22:07:56.643Z,44.80
2018-07-23T22:10:27.094Z,45.83
2018-07-23T22:12:58.388Z,44.80
2018-07-23T22:15:28.525Z,44.90
2018-07-23T22:17:59.068Z,44.37
2018-07-23T22:20:29.424Z,44.73
2018-07-23T22:23:00.672Z,43.93
2018-07-23T22:25:31.282Z,44.43
2018-07-23T22:28:01.446Z,44.07
2018-07-23T22:30:31.642Z,43.33
2018-07-23T22:33:02.074Z,43.30
2018-07-23T22:35:32.333Z,43.37
2018-07-23T22:38:02.419Z,43.77
2018-07-23T22:40:32.941Z,43.43
2018-07-23T22:43:03.062Z,43.60
2018-07-23T22:45:33.361Z,42.87
2018-07-23T22:48:03.677Z,43.30
2018-07-23T22:50:33.783Z,42.87
2018-07-23T22:53:05.357Z,44.13
2018-07-23T22:55:36.097Z,43.13
2018-07-23T22:58:07.313Z,43.20
2018-07-23T23:00:38.880Z,65.03
2018-07-23T23:03:10.398Z,43.53
2018-07-23T23:05:40.800Z,43.77
2018-07-23T23:08:11.026Z,43.57
2018-07-23T23:10:40.984Z,43.07
2018-07-23T23:13:11.646Z,43.83
2018-07-23T23:15:42.334Z,43.17
2018-07-23T23:18:12.999Z,43.87
2018-07-23T23:20:43.525Z,43.40
2018-07-23T23:23:13.966Z,42.83
2018-07-23T23:25:44.609Z,43.00
2018-07-23T23:28:14.833Z,43.37
2018-07-23T23:30:45.399Z,42.80
2018-07-23T23:33:15.547Z,44.10
2018-07-23T23:35:45.849Z,43.37
2018-07-23T23:38:16.197Z,42.80
2018-07-23T23:40:46.573Z,42.53
2018-07-23T23:43:16.676Z,43.17
2018-07-23T23:45:47.118Z,43.67
2018-07-23T23:48:17.395Z,43.83
2018-07-23T23:50:48.236Z,42.90
2018-07-23T23:53:18.905Z,43.67
2018-07-23T23:55:49.570Z,42.67
2018-07-23T23:58:19.640Z,43.07
